createdAt,value
2022-12-11T00:01:14.283Z,96929.69
2022-12-11T00:03:43.149Z,96927.75
2022-12-11T00:06:15.016Z,96933.28
2022-12-11T00:08:44.136Z,96932.78
2022-12-11T00:11:14.225Z,96937.47
2022-12-11T00:13:43.006Z,96934.72
2022-12-11T00:16:12.394Z,96927.63
2022-12-11T00:18:41.151Z,96924.84
2022-12-11T00:21:14.595Z,96920.50
2022-12-11T00:23:43.590Z,96918.88
2022-12-11T00:26:15.726Z,96918.88
2022-12-11T00:28:45.239Z,96907.84
2022-12-11T00:31:15.977Z,96906.25
2022-12-11T00:33:45.026Z,96903.00
2022-12-11T00:36:17.130Z,96902.34
2022-12-11T00:38:45.689Z,96907.06
2022-12-11T00:41:14.153Z,96903.50
2022-12-11T00:43:42.919Z,96902.19
2022-12-11T00:46:11.579Z,96901.53
2022-12-11T00:48:40.407Z,96903.50
2022-12-11T00:51:09.018Z,96901.53
2022-12-11T00:53:39.084Z,96902.69
2022-12-11T00:56:12.524Z,96903.50
2022-12-11T00:58:41.101Z,96904.63
2022-12-11T01:01:11.234Z,96904.63
2022-12-11T01:03:39.852Z,96901.88
2022-12-11T01:06:09.587Z,96915.63
2022-12-11T01:08:39.439Z,96915.63
2022-12-11T01:11:10.068Z,96914.84
2022-12-11T01:13:39.584Z,96919.53
2022-12-11T01:16:09.837Z,96925.03
2022-12-11T01:18:38.719Z,96930.22
2022-12-11T01:21:08.151Z,96931.34
2022-12-11T01:23:37.227Z,96936.06
2022-12-11T01:26:08.850Z,96939.13
2022-12-11T01:28:37.698Z,96939.94
2022-12-11T01:31:09.938Z,96946.25
2022-12-11T01:33:38.783Z,96949.00
2022-12-11T01:36:11.492Z,96949.34
2022-12-11T01:38:40.029Z,96949.34
2022-12-11T01:41:10.763Z,96943.81
2022-12-11T01:43:57.711Z,96947.72
2022-12-11T01:46:26.973Z,96954.03
2022-12-11T01:48:56.765Z,96964.22
2022-12-11T01:51:25.675Z,96958.72
2022-12-11T01:53:59.976Z,96959.88
2022-12-11T01:56:33.367Z,96959.88
2022-12-11T01:59:07.304Z,96960.19
2022-12-11T02:01:40.626Z,96961.00
2022-12-11T02:04:10.938Z,96963.75
2022-12-11T02:06:41.394Z,96957.44
2022-12-11T02:09:13.073Z,96947.56
2022-12-11T02:11:53.856Z,96959.38
2022-12-11T02:14:30.523Z,96953.88
2022-12-11T02:17:05.647Z,96952.25
2022-12-11T02:19:46.348Z,96956.97
2022-12-11T02:22:22.871Z,96950.66
2022-12-11T02:25:04.371Z,96955.66
2022-12-11T02:27:39.086Z,96960.84
2022-12-11T02:30:11.399Z,96963.94
2022-12-11T02:32:44.347Z,96959.22
2022-12-11T02:35:18.996Z,96958.41
2022-12-11T02:37:50.013Z,96963.94
2022-12-11T02:40:22.612Z,96969.44
2022-12-11T02:42:53.168Z,96965.06
2022-12-11T02:45:25.295Z,96967.00
2022-12-11T02:47:54.043Z,96967.00
2022-12-11T02:50:24.413Z,96970.56
2022-12-11T02:52:56.793Z,96967.00
2022-12-11T02:55:28.251Z,96970.91
2022-12-11T02:58:03.290Z,96971.72
2022-12-11T03:00:33.342Z,96966.19
2022-12-11T03:03:03.221Z,96970.75
2022-12-11T03:05:32.453Z,96972.34
2022-12-11T03:08:00.954Z,96970.91
2022-12-11T03:10:29.424Z,96966.84
2022-12-11T03:13:00.241Z,96957.47
2022-12-11T03:15:35.927Z,96964.91
2022-12-11T03:18:10.399Z,96971.22
2022-12-11T03:20:42.320Z,96961.34
2022-12-11T03:23:21.063Z,96961.34
2022-12-11T03:25:55.316Z,96957.78
2022-12-11T03:28:30.339Z,96954.22
2022-12-11T03:31:05.444Z,96959.72
2022-12-11T03:33:37.389Z,96958.13
2022-12-11T03:36:10.886Z,96963.63
2022-12-11T03:38:45.374Z,96960.88
2022-12-11T03:41:18.060Z,96959.25
2022-12-11T03:43:47.746Z,96958.91
2022-12-11T03:46:19.268Z,96957.31
2022-12-11T03:48:50.626Z,96964.75
2022-12-11T03:51:19.416Z,96963.94
2022-12-11T03:53:48.816Z,96964.28
2022-12-11T03:56:20.556Z,96969.44
2022-12-11T03:58:49.016Z,96969.78
2022-12-11T04:01:19.302Z,96971.41
2022-12-11T04:03:47.737Z,96964.28
2022-12-11T04:06:16.179Z,96959.56
2022-12-11T04:08:44.587Z,96953.25
2022-12-11T04:11:30.459Z,96953.25
2022-12-11T04:14:16.460Z,96948.56
2022-12-11T04:16:46.267Z,96939.50
2022-12-11T04:19:32.432Z,96945.34
2022-12-11T04:22:18.691Z,96939.03
2022-12-11T04:24:48.847Z,96939.03
2022-12-11T04:27:38.168Z,96941.78
2022-12-11T04:30:11.468Z,96934.66
2022-12-11T04:32:41.369Z,96930.75
2022-12-11T04:35:11.141Z,96929.16
2022-12-11T04:37:40.231Z,96926.41
2022-12-11T04:40:11.654Z,96929.97
2022-12-11T04:42:40.056Z,96929.16
2022-12-11T04:45:10.159Z,96925.59
2022-12-11T04:47:41.985Z,96919.28
2022-12-11T04:50:12.818Z,96928.34
2022-12-11T04:52:41.418Z,96928.66
2022-12-11T04:55:11.249Z,96925.91
2022-12-11T04:57:39.894Z,96919.59
2022-12-11T05:00:11.947Z,96910.88
2022-12-11T05:02:43.327Z,96919.59
2022-12-11T05:05:13.052Z,96922.34
2022-12-11T05:07:42.006Z,96923.16
2022-12-11T05:10:11.248Z,96918.78
2022-12-11T05:12:39.944Z,96916.84
2022-12-11T05:15:09.785Z,96933.38
2022-12-11T05:17:38.880Z,96927.06
2022-12-11T05:20:10.470Z,96927.06
2022-12-11T05:22:39.460Z,96926.25
2022-12-11T05:25:08.980Z,96919.94
2022-12-11T05:27:37.786Z,96922.69
2022-12-11T05:30:07.478Z,96920.75
2022-12-11T05:32:35.867Z,96917.19
2022-12-11T05:35:04.678Z,96924.63
2022-12-11T05:37:35.516Z,96925.44
2022-12-11T05:40:06.159Z,96925.44
2022-12-11T05:42:34.674Z,96917.66
2022-12-11T05:45:03.438Z,96914.72
2022-12-11T05:47:32.468Z,96921.19
2022-12-11T05:50:00.851Z,96914.38
2022-12-11T05:52:29.283Z,96916.31
2022-12-11T05:54:59.093Z,96914.97
2022-12-11T05:57:27.479Z,96902.66
2022-12-11T05:59:55.957Z,96903.91
2022-12-11T06:02:24.522Z,96898.22
2022-12-11T06:04:52.974Z,96899.00
2022-12-11T06:07:21.417Z,96903.84
2022-12-11T06:09:49.791Z,96909.66
2022-12-11T06:12:19.746Z,96897.47
2022-12-11T06:14:48.155Z,96900.84
2022-12-11T06:17:16.606Z,96894.53
2022-12-11T06:19:44.969Z,96891.78
2022-12-11T06:22:13.361Z,96866.97
2022-12-11T06:24:41.776Z,96866.50
2022-12-11T06:27:10.226Z,96888.84
2022-12-11T06:29:40.040Z,96894.34
2022-12-11T06:32:08.504Z,96904.22
2022-12-11T06:34:36.932Z,96890.91
2022-12-11T06:37:05.464Z,96893.69
2022-12-11T06:39:33.939Z,96888.16
2022-12-11T06:42:02.398Z,96882.66
2022-12-11T06:44:30.865Z,96883.47
2022-12-11T06:47:00.711Z,96887.84
2022-12-11T06:49:29.224Z,96882.66
2022-12-11T06:51:58.525Z,96887.84
2022-12-11T06:54:27.735Z,96893.00
2022-12-11T06:56:56.231Z,96898.53
2022-12-11T06:59:24.819Z,96895.75
2022-12-11T07:01:53.266Z,96897.38
2022-12-11T07:04:24.639Z,96894.63
2022-12-11T07:06:53.348Z,96889.13
2022-12-11T07:09:22.831Z,96899.31
2022-12-11T07:11:51.640Z,96903.22
2022-12-11T07:14:20.317Z,96909.53
2022-12-11T07:16:48.818Z,96910.69
2022-12-11T07:19:17.556Z,96913.44
2022-12-11T07:21:47.400Z,96914.25
2022-12-11T07:24:15.884Z,96920.56
2022-12-11T07:26:44.344Z,96922.50
2022-12-11T07:29:12.769Z,96921.38
2022-12-11T07:31:41.241Z,96929.97
2022-12-11T07:34:12.679Z,96926.75
2022-12-11T07:36:41.175Z,96925.94
2022-12-11T07:39:12.531Z,96929.84
2022-12-11T07:41:41.069Z,96926.75
2022-12-11T07:44:12.647Z,96934.19
2022-12-11T07:46:41.351Z,96942.94
2022-12-11T07:49:09.759Z,96953.63
2022-12-11T07:51:39.393Z,96942.63
2022-12-11T07:54:11.967Z,96943.41
2022-12-11T07:56:43.899Z,96938.72
2022-12-11T07:59:12.731Z,96941.13
2022-12-11T08:01:42.112Z,96947.47
2022-12-11T08:04:15.406Z,96939.19
2022-12-11T08:06:44.195Z,96942.41
2022-12-11T08:09:21.074Z,96946.31
2022-12-11T08:11:51.779Z,96935.78
2022-12-11T08:14:20.739Z,96944.03
2022-12-11T08:16:49.535Z,96929.94
2022-12-11T08:19:18.127Z,96928.75
2022-12-11T08:21:46.813Z,96924.84
2022-12-11T08:24:16.434Z,96931.97
2022-12-11T08:26:46.767Z,96923.72
2022-12-11T08:29:16.538Z,96920.63
2022-12-11T08:31:45.263Z,96925.00
2022-12-11T08:34:14.146Z,96921.09
2022-12-11T08:36:43.839Z,96921.09
2022-12-11T08:39:12.325Z,96914.78
2022-12-11T08:41:40.782Z,96915.59
2022-12-11T08:44:16.286Z,96923.38
2022-12-11T08:46:46.859Z,96936.16
2022-12-11T08:49:15.305Z,96930.66
2022-12-11T08:51:43.714Z,96925.94
2022-12-11T08:54:12.340Z,96933.06
2022-12-11T08:56:40.900Z,96934.69
2022-12-11T08:59:09.358Z,96925.28
2022-12-11T09:01:37.854Z,96929.16
2022-12-11T09:04:07.727Z,96928.38
2022-12-11T09:06:36.163Z,96934.69
2022-12-11T09:09:05.127Z,96919.28
2022-12-11T09:11:36.803Z,96925.59
2022-12-11T09:14:07.831Z,96923.66
2022-12-11T09:16:40.134Z,96929.16
2022-12-11T09:19:13.644Z,96929.97
2022-12-11T09:21:43.548Z,96933.06
2022-12-11T09:24:13.493Z,96925.94
2022-12-11T09:26:42.617Z,96927.56
2022-12-11T09:29:12.947Z,96917.66
2022-12-11T09:31:41.452Z,96921.25
2022-12-11T09:34:13.341Z,96911.03
2022-12-11T09:36:44.042Z,96919.28
2022-12-11T09:39:14.132Z,96911.03
2022-12-11T09:41:52.871Z,96912.63
2022-12-11T09:44:31.687Z,96916.53
2022-12-11T09:47:00.597Z,96908.59
2022-12-11T09:49:36.280Z,96905.50
2022-12-11T09:52:13.642Z,96907.13
2022-12-11T09:54:48.811Z,96900.00
2022-12-11T09:57:33.239Z,96893.34
2022-12-11T10:00:11.330Z,96895.28
2022-12-11T10:03:03.663Z,96893.66
2022-12-11T10:05:43.761Z,96897.56
2022-12-11T10:08:15.456Z,96895.63
2022-12-11T10:10:52.594Z,96900.00
2022-12-11T10:13:29.140Z,96894.47
2022-12-11T10:16:05.047Z,96897.22
2022-12-11T10:18:34.871Z,96896.09
2022-12-11T10:21:05.540Z,96887.00
2022-12-11T10:23:39.667Z,96883.44
2022-12-11T10:26:12.142Z,96880.22
2022-12-11T10:28:40.823Z,96880.22
2022-12-11T10:31:17.002Z,96876.31
2022-12-11T10:33:56.068Z,96876.31
2022-12-11T10:36:32.465Z,96877.94
2022-12-11T10:39:01.187Z,96876.31
2022-12-11T10:41:39.078Z,96868.06
2022-12-11T10:44:18.680Z,96862.53
2022-12-11T10:46:48.911Z,96862.53
2022-12-11T10:49:26.102Z,96869.19
2022-12-11T10:51:57.088Z,96859.31
2022-12-11T10:54:33.002Z,96853.31
2022-12-11T10:57:04.170Z,96858.84
2022-12-11T10:59:37.519Z,96856.56
2022-12-11T11:02:08.610Z,96852.00
2022-12-11T11:04:38.847Z,96844.19
2022-12-11T11:07:15.373Z,96852.25
2022-12-11T11:09:44.367Z,96855.47
2022-12-11T11:12:21.506Z,96847.69
2022-12-11T11:15:00.656Z,96845.41
2022-12-11T11:17:33.830Z,96841.97
2022-12-11T11:20:14.193Z,96836.91
2022-12-11T11:22:46.728Z,96838.53
2022-12-11T11:25:20.854Z,96835.44
2022-12-11T11:27:52.405Z,96835.09
2022-12-11T11:30:23.930Z,96827.63
2022-12-11T11:32:55.345Z,96831.19
2022-12-11T11:35:26.542Z,96819.81
2022-12-11T11:38:03.350Z,96830.53
2022-12-11T11:40:35.050Z,96816.25
2022-12-11T11:43:14.049Z,96817.88
2022-12-11T11:45:47.710Z,96814.31
2022-12-11T11:48:29.576Z,96812.34
2022-12-11T11:50:59.332Z,96814.31
2022-12-11T11:53:32.912Z,96808.00
2022-12-11T11:56:07.013Z,96800.06
2022-12-11T11:58:40.553Z,96802.00
2022-12-11T12:01:15.689Z,96799.25
2022-12-11T12:03:44.743Z,96797.63
2022-12-11T12:06:26.824Z,96803.16
2022-12-11T12:09:13.031Z,96801.53
2022-12-11T12:11:47.531Z,96797.97
2022-12-11T12:14:51.193Z,96797.50
2022-12-11T12:17:20.934Z,96796.69
2022-12-11T12:19:55.970Z,96793.94
2022-12-11T12:22:43.500Z,96796.69
2022-12-11T12:25:23.195Z,96789.56
2022-12-11T12:27:59.431Z,96788.75
2022-12-11T12:30:37.870Z,96792.34
2022-12-11T12:33:23.810Z,96783.59
2022-12-11T12:36:06.553Z,96789.44
2022-12-11T12:38:48.501Z,96781.50
2022-12-11T12:41:23.386Z,96784.75
2022-12-11T12:44:04.642Z,96780.38
2022-12-11T12:46:45.893Z,96779.56
2022-12-11T12:49:21.406Z,96776.00
2022-12-11T12:51:52.341Z,96772.78
2022-12-11T12:54:22.282Z,96784.06
2022-12-11T12:56:52.323Z,96777.75
2022-12-11T12:59:23.195Z,96781.31
2022-12-11T13:01:56.907Z,96774.66
2022-12-11T13:04:55.888Z,96780.97
2022-12-11T13:07:29.838Z,96781.78
2022-12-11T13:10:06.529Z,96781.78
2022-12-11T13:12:43.435Z,96779.69
2022-12-11T13:15:30.261Z,96785.53
2022-12-11T13:17:59.683Z,96783.47
2022-12-11T13:20:30.335Z,96783.81
2022-12-11T13:23:19.029Z,96783.47
2022-12-11T13:25:51.461Z,96778.53
2022-12-11T13:28:28.327Z,96778.00
2022-12-11T13:31:31.145Z,96787.19
2022-12-11T13:34:10.267Z,96785.41
2022-12-11T13:36:41.496Z,96787.16
2022-12-11T13:39:19.059Z,96794.06
2022-12-11T13:41:49.702Z,96793.16
2022-12-11T13:44:25.627Z,96788.56
2022-12-11T13:46:57.299Z,96786.97
2022-12-11T13:49:28.945Z,96781.56
2022-12-11T13:51:59.426Z,96787.22
2022-12-11T13:54:31.613Z,96782.63
2022-12-11T13:57:03.194Z,96793.66
2022-12-11T13:59:35.566Z,96778.25
2022-12-11T14:02:16.045Z,96780.53
2022-12-11T14:04:45.162Z,96782.84
2022-12-11T14:07:13.928Z,96775.84
2022-12-11T14:09:45.416Z,96776.28
2022-12-11T14:12:19.115Z,96782.63
2022-12-11T14:14:52.554Z,96778.59
2022-12-11T14:17:25.801Z,96774.56
2022-12-11T14:19:55.593Z,96772.94
2022-12-11T14:22:26.007Z,96772.94
2022-12-11T14:24:56.521Z,96779.63
2022-12-11T14:27:27.285Z,96777.53
2022-12-11T14:29:57.559Z,96783.06
2022-12-11T14:32:33.097Z,96793.28
2022-12-11T14:35:05.386Z,96792.47
2022-12-11T14:37:35.988Z,96799.63
2022-12-11T14:40:10.435Z,96798.00
2022-12-11T14:42:41.965Z,96803.06
2022-12-11T14:45:20.807Z,96800.97
2022-12-11T14:47:50.201Z,96807.97
2022-12-11T14:50:22.286Z,96807.16
2022-12-11T14:52:54.370Z,96813.38
2022-12-11T14:55:27.042Z,96810.13
2022-12-11T14:57:59.893Z,96805.78
2022-12-11T15:00:32.137Z,96806.91
2022-12-11T15:03:03.141Z,96813.59
2022-12-11T15:05:38.835Z,96809.22
2022-12-11T15:08:24.727Z,96810.34
2022-12-11T15:11:04.042Z,96813.13
2022-12-11T15:13:33.967Z,96821.72
2022-12-11T15:16:05.272Z,96821.25
2022-12-11T15:18:37.075Z,96829.38
2022-12-11T15:21:09.485Z,96822.72
2022-12-11T15:23:50.400Z,96815.13
2022-12-11T15:26:19.848Z,96822.91
2022-12-11T15:28:48.659Z,96830.38
2022-12-11T15:31:29.777Z,96827.16
2022-12-11T15:33:58.330Z,96827.50
2022-12-11T15:36:34.223Z,96827.50
2022-12-11T15:39:03.930Z,96831.75
2022-12-11T15:41:34.529Z,96837.25
2022-12-11T15:44:04.936Z,96836.78
2022-12-11T15:46:38.147Z,96836.66
2022-12-11T15:49:12.208Z,96850.44
2022-12-11T15:51:43.092Z,96852.38
2022-12-11T15:54:12.134Z,96853.06
2022-12-11T15:56:40.889Z,96853.88
2022-12-11T15:59:11.551Z,96856.16
2022-12-11T16:01:41.408Z,96858.44
2022-12-11T16:04:09.874Z,96858.44
2022-12-11T16:06:38.360Z,96862.34
2022-12-11T16:09:06.840Z,96857.16
2022-12-11T16:11:35.263Z,96859.13
2022-12-11T16:14:04.490Z,96859.13
2022-12-11T16:16:33.411Z,96854.28
2022-12-11T16:19:03.329Z,96863.00
2022-12-11T16:21:31.810Z,96863.34
2022-12-11T16:24:00.177Z,96857.84
2022-12-11T16:26:28.985Z,96865.31
2022-12-11T16:29:00.552Z,96862.53
2022-12-11T16:31:29.869Z,96865.31
2022-12-11T16:33:58.679Z,96864.16
2022-12-11T16:36:28.665Z,96865.31
2022-12-11T16:38:57.085Z,96855.41
2022-12-11T16:41:27.849Z,96860.13
2022-12-11T16:43:56.271Z,96856.56
2022-12-11T16:46:25.966Z,96855.75
2022-12-11T16:48:54.621Z,96853.31
2022-12-11T16:51:23.143Z,96852.53
2022-12-11T16:53:52.914Z,96859.97
2022-12-11T16:56:21.391Z,96859.50
2022-12-11T16:58:49.847Z,96852.38
2022-12-11T17:01:18.399Z,96860.22
2022-12-11T17:03:46.998Z,96859.28
2022-12-11T17:06:18.255Z,96858.81
2022-12-11T17:08:46.943Z,96854.44
2022-12-11T17:11:19.618Z,96854.44
2022-12-11T17:13:48.682Z,96845.34
2022-12-11T17:16:18.014Z,96856.03
2022-12-11T17:18:46.464Z,96849.88
2022-12-11T17:21:17.605Z,96847.56
2022-12-11T17:23:46.563Z,96846.44
2022-12-11T17:26:16.637Z,96846.44
2022-12-11T17:28:45.569Z,96843.69
2022-12-11T17:31:16.721Z,96845.28
2022-12-11T17:33:45.760Z,96842.97
2022-12-11T17:36:16.418Z,96841.03
2022-12-11T17:38:45.393Z,96840.69
2022-12-11T17:41:20.497Z,96844.25
2022-12-11T17:43:49.746Z,96840.69
2022-12-11T17:46:19.497Z,96833.56
2022-12-11T17:48:48.585Z,96845.41
2022-12-11T17:51:21.844Z,96836.66
2022-12-11T17:53:50.670Z,96833.56
2022-12-11T17:56:20.506Z,96828.06
2022-12-11T17:58:49.017Z,96839.06
2022-12-11T18:01:18.031Z,96841.84
2022-12-11T18:03:46.846Z,96844.59
2022-12-11T18:06:17.134Z,96846.22
2022-12-11T18:08:46.202Z,96840.22
2022-12-11T18:11:17.350Z,96835.19
2022-12-11T18:13:47.219Z,96840.69
2022-12-11T18:16:17.881Z,96841.50
2022-12-11T18:18:47.024Z,96843.44
2022-12-11T18:21:17.831Z,96846.22
2022-12-11T18:23:46.692Z,96850.56
2022-12-11T18:26:15.491Z,96842.31
2022-12-11T18:28:44.987Z,96835.50
2022-12-11T18:31:15.602Z,96840.69
2022-12-11T18:33:45.436Z,96845.41
2022-12-11T18:36:15.800Z,96839.06
2022-12-11T18:38:45.406Z,96841.84
2022-12-11T18:41:14.459Z,96838.28
2022-12-11T18:43:43.525Z,96839.06
2022-12-11T18:46:15.046Z,96838.28
2022-12-11T18:48:44.387Z,96841.84
2022-12-11T18:51:14.986Z,96840.69
2022-12-11T18:53:45.245Z,96842.31
2022-12-11T18:56:16.575Z,96845.53
2022-12-11T18:58:45.758Z,96843.59
2022-12-11T19:01:19.082Z,96846.00
2022-12-11T19:03:47.912Z,96845.66
2022-12-11T19:06:18.452Z,96849.69
2022-12-11T19:08:47.197Z,96857.31
2022-12-11T19:11:16.862Z,96850.50
2022-12-11T19:13:46.568Z,96848.63
2022-12-11T19:16:22.100Z,96853.56
2022-12-11T19:18:51.032Z,96849.88
2022-12-11T19:21:19.975Z,96847.31
2022-12-11T19:23:49.320Z,96848.78
2022-12-11T19:26:20.139Z,96841.13
2022-12-11T19:28:50.515Z,96841.25
2022-12-11T19:31:22.376Z,96844.25
2022-12-11T19:33:51.516Z,96845.53
2022-12-11T19:36:21.658Z,96848.56
2022-12-11T19:38:50.691Z,96844.31
2022-12-11T19:41:21.540Z,96849.16
2022-12-11T19:43:50.522Z,96850.91
2022-12-11T19:46:21.415Z,96845.06
2022-12-11T19:48:50.581Z,96850.22
2022-12-11T19:51:21.044Z,96850.69
2022-12-11T19:53:50.483Z,96842.91
2022-12-11T19:56:20.747Z,96843.38
2022-12-11T19:58:49.735Z,96844.97
2022-12-11T20:01:25.674Z,96841.09
2022-12-11T20:03:55.306Z,96842.00
2022-12-11T20:06:24.565Z,96848.34
2022-12-11T20:08:53.166Z,96843.63
2022-12-11T20:11:21.746Z,96842.50
2022-12-11T20:13:50.632Z,96843.63
2022-12-11T20:16:39.124Z,96846.09
2022-12-11T20:19:10.562Z,96842.19
2022-12-11T20:21:39.002Z,96855.63
2022-12-11T20:24:08.016Z,96852.19
2022-12-11T20:26:38.082Z,96849.44
2022-12-11T20:29:08.358Z,96853.81
2022-12-11T20:31:37.683Z,96849.91
2022-12-11T20:34:07.494Z,96843.25
2022-12-11T20:36:37.276Z,96840.16
2022-12-11T20:39:06.032Z,96840.94
2022-12-11T20:41:34.480Z,96841.41
2022-12-11T20:44:02.918Z,96839.47
2022-12-11T20:46:31.510Z,96845.78
2022-12-11T20:48:59.939Z,96844.97
2022-12-11T20:51:29.086Z,96852.13
2022-12-11T20:53:59.798Z,96856.81
2022-12-11T20:56:30.262Z,96859.25
2022-12-11T20:59:00.507Z,96863.16
2022-12-11T21:01:31.755Z,96864.44
2022-12-11T21:04:00.628Z,96865.56
2022-12-11T21:06:31.654Z,96852.91
2022-12-11T21:09:03.219Z,96863.16
2022-12-11T21:11:32.063Z,96855.22
2022-12-11T21:14:00.949Z,96849.69
2022-12-11T21:16:29.666Z,96850.16
2022-12-11T21:18:59.126Z,96863.16
2022-12-11T21:21:27.823Z,96859.59
2022-12-11T21:23:56.251Z,96869.81
2022-12-11T21:26:26.144Z,96861.53
2022-12-11T21:28:54.859Z,96870.16
2022-12-11T21:31:23.361Z,96865.78
2022-12-11T21:33:52.073Z,96874.06
2022-12-11T21:36:20.500Z,96871.63
2022-12-11T21:38:49.611Z,96871.50
2022-12-11T21:41:20.794Z,96876.34
2022-12-11T21:44:56.523Z,96869.09
2022-12-11T21:46:41.604Z,96872.19
2022-12-11T21:49:10.063Z,96875.28
2022-12-11T21:51:46.740Z,96870.91
2022-12-11T21:54:18.770Z,96879.00
2022-12-11T21:56:48.095Z,96875.78
2022-12-11T21:59:17.925Z,96880.84
2022-12-11T22:01:47.003Z,96887.50
2022-12-11T22:04:16.622Z,96877.13
2022-12-11T22:06:47.240Z,96884.13
2022-12-11T22:09:17.720Z,96881.22
2022-12-11T22:11:47.279Z,96878.34
2022-12-11T22:14:18.658Z,96872.22
2022-12-11T22:16:47.611Z,96872.69
2022-12-11T22:19:16.143Z,96874.66
2022-12-11T22:21:44.538Z,96879.34
2022-12-11T22:24:14.079Z,96880.50
2022-12-11T22:26:42.607Z,96875.66
2022-12-11T22:29:11.146Z,96869.66
2022-12-11T22:31:40.953Z,96876.47
2022-12-11T22:34:09.634Z,96864.63
2022-12-11T22:36:38.245Z,96874.84
2022-12-11T22:39:06.950Z,96878.75
2022-12-11T22:41:38.307Z,96877.13
2022-12-11T22:44:06.872Z,96875.84
2022-12-11T22:46:35.404Z,96877.81
2022-12-11T22:49:05.290Z,96877.66
2022-12-11T22:51:33.891Z,96881.56
2022-12-11T22:54:02.416Z,96879.13
2022-12-11T22:56:30.981Z,96882.25
2022-12-11T22:58:59.561Z,96879.03
2022-12-11T23:01:29.119Z,96882.94
2022-12-11T23:03:57.572Z,96882.47
2022-12-11T23:06:27.404Z,96889.13
2022-12-11T23:08:59.060Z,96889.44
2022-12-11T23:11:29.980Z,96884.28
2022-12-11T23:13:58.826Z,96891.59
2022-12-11T23:16:28.668Z,96888.84
2022-12-11T23:18:58.136Z,96873.78
2022-12-11T23:21:28.547Z,96880.75
2022-12-11T23:23:58.383Z,96877.53
2022-12-11T23:26:29.239Z,96885.31
2022-12-11T23:28:59.212Z,96887.28
2022-12-11T23:31:28.478Z,96887.59
2022-12-11T23:33:56.964Z,96897.00
2022-12-11T23:36:26.427Z,96889.06
2022-12-11T23:38:56.301Z,96892.97
2022-12-11T23:41:24.814Z,96891.03
2022-12-11T23:43:53.246Z,96894.09
2022-12-11T23:46:23.822Z,96886.66
2022-12-11T23:48:53.483Z,96890.53
2022-12-11T23:51:23.695Z,96893.31
2022-12-11T23:53:53.150Z,96888.94
2022-12-11T23:56:25.433Z,96891.69
2022-12-11T23:58:54.923Z,96890.53
